sensor_id;sensor_type;location;lat;lon;timestamp;pressure;altitude;pressure_sealevel;temperature;humidity
13235;BME280;6683;48.506;9.050;2022-07-23T00:02:57;98093.41;;;24.89;57.40
13235;BME280;6683;48.506;9.050;2022-07-23T00:05:59;98095.56;;;24.87;57.55
13235;BME280;6683;48.506;9.050;2022-07-23T00:09:01;98081.31;;;24.81;57.38
13235;BME280;6683;48.506;9.050;2022-07-23T00:12:05;98057.59;;;24.78;57.13
13235;BME280;6683;48.506;9.050;2022-07-23T00:15:09;98033.53;;;24.77;57.12
13235;BME280;6683;48.506;9.050;2022-07-23T00:18:13;98041.66;;;24.77;57.31
13235;BME280;6683;48.506;9.050;2022-07-23T00:21:15;98040.06;;;24.76;57.59
13235;BME280;6683;48.506;9.050;2022-07-23T00:24:17;98055.72;;;24.74;57.63
13235;BME280;6683;48.506;9.050;2022-07-23T00:27:20;98060.81;;;24.70;57.88
13235;BME280;6683;48.506;9.050;2022-07-23T00:30:22;98057.88;;;24.67;58.04
13235;BME280;6683;48.506;9.050;2022-07-23T00:33:26;98067.34;;;24.64;58.22
13235;BME280;6683;48.506;9.050;2022-07-23T00:36:29;98061.69;;;24.66;58.38
13235;BME280;6683;48.506;9.050;2022-07-23T00:39:32;98059.50;;;24.68;58.29
13235;BME280;6683;48.506;9.050;2022-07-23T00:42:34;98062.75;;;24.70;58.34
13235;BME280;6683;48.506;9.050;2022-07-23T00:45:36;98074.63;;;24.74;58.41
13235;BME280;6683;48.506;9.050;2022-07-23T00:48:40;98095.63;;;24.77;58.50
13235;BME280;6683;48.506;9.050;2022-07-23T00:51:42;98082.41;;;24.80;58.31
13235;BME280;6683;48.506;9.050;2022-07-23T00:54:45;98092.41;;;24.80;58.10
13235;BME280;6683;48.506;9.050;2022-07-23T00:57:47;98099.97;;;24.78;58.31
13235;BME280;6683;48.506;9.050;2022-07-23T01:00:50;98070.25;;;24.73;58.26
13235;BME280;6683;48.506;9.050;2022-07-23T01:03:54;98064.63;;;24.69;58.50
13235;BME280;6683;48.506;9.050;2022-07-23T01:06:56;98062.75;;;24.70;58.34
13235;BME280;6683;48.506;9.050;2022-07-23T01:09:59;98071.66;;;24.65;58.33
13235;BME280;6683;48.506;9.050;2022-07-23T01:13:05;98078.19;;;24.59;58.44
13235;BME280;6683;48.506;9.050;2022-07-23T01:16:08;98059.56;;;24.57;58.57
13235;BME280;6683;48.506;9.050;2022-07-23T01:19:13;98045.28;;;24.57;58.39
13235;BME280;6683;48.506;9.050;2022-07-23T01:22:19;98013.16;;;24.55;58.49
13235;BME280;6683;48.506;9.050;2022-07-23T01:25:23;98003.16;;;24.56;58.26
13235;BME280;6683;48.506;9.050;2022-07-23T01:28:26;97979.97;;;24.55;58.44
13235;BME280;6683;48.506;9.050;2022-07-23T01:31:28;97963.25;;;24.53;58.35
13235;BME280;6683;48.506;9.050;2022-07-23T01:34:31;97953.00;;;24.50;58.35
13235;BME280;6683;48.506;9.050;2022-07-23T01:37:34;97956.56;;;24.45;58.38
13235;BME280;6683;48.506;9.050;2022-07-23T01:40:38;97963.38;;;24.38;58.50
13235;BME280;6683;48.506;9.050;2022-07-23T01:43:40;97983.09;;;24.33;58.72
13235;BME280;6683;48.506;9.050;2022-07-23T01:46:42;97978.22;;;24.30;58.81
13235;BME280;6683;48.506;9.050;2022-07-23T01:49:45;97974.22;;;24.28;59.05
13235;BME280;6683;48.506;9.050;2022-07-23T01:52:47;97991.78;;;24.25;59.10
13235;BME280;6683;48.506;9.050;2022-07-23T01:55:51;97991.25;;;24.23;59.56
13235;BME280;6683;48.506;9.050;2022-07-23T01:58:53;97992.38;;;24.17;59.27
13235;BME280;6683;48.506;9.050;2022-07-23T02:01:55;97985.63;;;24.15;59.61
13235;BME280;6683;48.506;9.050;2022-07-23T02:04:58;97995.06;;;24.12;59.84
13235;BME280;6683;48.506;9.050;2022-07-23T02:08:00;98012.91;;;24.08;59.23
13235;BME280;6683;48.506;9.050;2022-07-23T02:11:04;98034.19;;;24.10;59.29
13235;BME280;6683;48.506;9.050;2022-07-23T02:14:07;98047.66;;;24.10;59.17
13235;BME280;6683;48.506;9.050;2022-07-23T02:17:10;98053.88;;;24.10;59.11
13235;BME280;6683;48.506;9.050;2022-07-23T02:20:12;98059.28;;;24.10;59.21
13235;BME280;6683;48.506;9.050;2022-07-23T02:23:15;98079.78;;;24.11;58.91
13235;BME280;6683;48.506;9.050;2022-07-23T02:26:19;98088.66;;;24.12;58.89
13235;BME280;6683;48.506;9.050;2022-07-23T02:29:21;98072.47;;;24.12;58.85
13235;BME280;6683;48.506;9.050;2022-07-23T02:32:24;98074.38;;;24.11;58.84
13235;BME280;6683;48.506;9.050;2022-07-23T02:35:26;98076.81;;;24.08;58.63
13235;BME280;6683;48.506;9.050;2022-07-23T02:38:29;98093.00;;;24.03;58.48
13235;BME280;6683;48.506;9.050;2022-07-23T02:41:33;98093.81;;;23.98;58.82
13235;BME280;6683;48.506;9.050;2022-07-23T02:44:35;98097.03;;;23.95;58.53
13235;BME280;6683;48.506;9.050;2022-07-23T02:47:38;98084.94;;;23.93;58.60
13235;BME280;6683;48.506;9.050;2022-07-23T02:50:40;98086.81;;;23.87;58.22
13235;BME280;6683;48.506;9.050;2022-07-23T02:53:43;98093.84;;;23.83;58.22
13235;BME280;6683;48.506;9.050;2022-07-23T02:56:46;98095.47;;;23.79;58.56
13235;BME280;6683;48.506;9.050;2022-07-23T02:59:51;98111.66;;;23.74;58.20
13235;BME280;6683;48.506;9.050;2022-07-23T03:02:53;98117.59;;;23.71;58.47
13235;BME280;6683;48.506;9.050;2022-07-23T03:05:56;98123.81;;;23.71;58.56
13235;BME280;6683;48.506;9.050;2022-07-23T03:08:58;98121.38;;;23.70;58.54
13235;BME280;6683;48.506;9.050;2022-07-23T03:12:02;98127.31;;;23.67;58.75
13235;BME280;6683;48.506;9.050;2022-07-23T03:15:07;98137.03;;;23.63;58.70
13235;BME280;6683;48.506;9.050;2022-07-23T03:18:09;98141.34;;;23.59;58.67
13235;BME280;6683;48.506;9.050;2022-07-23T03:21:12;98136.47;;;23.56;59.07
13235;BME280;6683;48.506;9.050;2022-07-23T03:24:14;98135.69;;;23.50;59.18
13235;BME280;6683;48.506;9.050;2022-07-23T03:27:20;98118.44;;;23.41;59.11
13235;BME280;6683;48.506;9.050;2022-07-23T03:30:22;98105.25;;;23.35;59.33
13235;BME280;6683;48.506;9.050;2022-07-23T03:33:25;98102.53;;;23.30;59.37
13235;BME280;6683;48.506;9.050;2022-07-23T03:36:27;98110.59;;;23.25;59.34
13235;BME280;6683;48.506;9.050;2022-07-23T03:39:30;98111.69;;;23.19;59.46
13235;BME280;6683;48.506;9.050;2022-07-23T03:42:33;98101.44;;;23.11;59.48
13235;BME280;6683;48.506;9.050;2022-07-23T03:45:37;98113.31;;;23.04;59.86
13235;BME280;6683;48.506;9.050;2022-07-23T03:48:40;98112.22;;;23.00;59.93
13235;BME280;6683;48.506;9.050;2022-07-23T03:51:42;98121.38;;;22.94;60.09
13235;BME280;6683;48.506;9.050;2022-07-23T03:54:45;98125.41;;;22.92;60.53
13235;BME280;6683;48.506;9.050;2022-07-23T03:57:48;98138.03;;;22.91;60.34
13235;BME280;6683;48.506;9.050;2022-07-23T04:00:51;98149.91;;;22.90;60.57
13235;BME280;6683;48.506;9.050;2022-07-23T04:03:53;98145.56;;;22.89;60.53
13235;BME280;6683;48.506;9.050;2022-07-23T04:06:55;98144.22;;;22.87;60.51
13235;BME280;6683;48.506;9.050;2022-07-23T04:09:58;98153.94;;;22.88;60.46
13235;BME280;6683;48.506;9.050;2022-07-23T04:13:02;98150.41;;;22.87;60.68
13235;BME280;6683;48.506;9.050;2022-07-23T04:16:05;98144.22;;;22.87;60.68
13235;BME280;6683;48.506;9.050;2022-07-23T04:19:07;98141.81;;;22.85;60.65
13235;BME280;6683;48.506;9.050;2022-07-23T04:22:11;98142.31;;;22.82;60.86
13235;BME280;6683;48.506;9.050;2022-07-23T04:25:13;98145.00;;;22.82;60.85
13235;BME280;6683;48.506;9.050;2022-07-23T04:28:19;98149.84;;;22.80;61.40
13235;BME280;6683;48.506;9.050;2022-07-23T04:31:21;98160.63;;;22.80;61.07
13235;BME280;6683;48.506;9.050;2022-07-23T04:34:24;98163.84;;;22.82;61.34
13235;BME280;6683;48.506;9.050;2022-07-23T04:37:27;98162.25;;;22.86;61.54
13235;BME280;6683;48.506;9.050;2022-07-23T04:40:29;98153.38;;;22.91;61.23
13235;BME280;6683;48.506;9.050;2022-07-23T04:43:33;98151.53;;;22.96;61.70
13235;BME280;6683;48.506;9.050;2022-07-23T04:46:35;98152.06;;;23.03;61.82
13235;BME280;6683;48.506;9.050;2022-07-23T04:49:37;98156.13;;;23.11;61.64
13235;BME280;6683;48.506;9.050;2022-07-23T04:52:40;98156.94;;;23.17;61.54
13235;BME280;6683;48.506;9.050;2022-07-23T04:55:42;98161.50;;;23.21;61.82
13235;BME280;6683;48.506;9.050;2022-07-23T04:58:46;98175.53;;;23.23;61.55
13235;BME280;6683;48.506;9.050;2022-07-23T05:01:49;98172.03;;;23.28;61.90
13235;BME280;6683;48.506;9.050;2022-07-23T05:04:51;98174.75;;;23.33;62.05
13235;BME280;6683;48.506;9.050;2022-07-23T05:07:54;98178.81;;;23.40;62.02
13235;BME280;6683;48.506;9.050;2022-07-23T05:10:56;98162.63;;;23.45;61.77
13235;BME280;6683;48.506;9.050;2022-07-23T05:14:00;98156.44;;;23.50;61.61
13235;BME280;6683;48.506;9.050;2022-07-23T05:17:03;98168.03;;;23.50;61.31
13235;BME280;6683;48.506;9.050;2022-07-23T05:20:06;98163.44;;;23.51;61.58
13235;BME280;6683;48.506;9.050;2022-07-23T05:23:09;98163.16;;;23.52;61.32
13235;BME280;6683;48.506;9.050;2022-07-23T05:26:11;98167.75;;;23.57;61.46
13235;BME280;6683;48.506;9.050;2022-07-23T05:29:15;98152.13;;;23.59;61.05
13235;BME280;6683;48.506;9.050;2022-07-23T05:32:18;98156.97;;;23.62;61.26
13235;BME280;6683;48.506;9.050;2022-07-23T05:35:21;98155.88;;;23.63;61.46
13235;BME280;6683;48.506;9.050;2022-07-23T05:38:23;98157.78;;;23.62;61.36
13235;BME280;6683;48.506;9.050;2022-07-23T05:41:25;98153.16;;;23.68;61.67
13235;BME280;6683;48.506;9.050;2022-07-23T05:44:29;98157.22;;;23.86;61.92
13235;BME280;6683;48.506;9.050;2022-07-23T05:47:41;98155.31;;;24.06;62.03
13235;BME280;6683;48.506;9.050;2022-07-23T05:50:43;98143.09;;;24.29;61.87
13235;BME280;6683;48.506;9.050;2022-07-23T05:53:46;98141.41;;;24.48;61.56
13235;BME280;6683;48.506;9.050;2022-07-23T05:56:48;98144.50;;;24.70;61.55
13235;BME280;6683;48.506;9.050;2022-07-23T05:59:52;98138.75;;;24.92;61.38
13235;BME280;6683;48.506;9.050;2022-07-23T06:02:55;98145.41;;;25.09;60.93
13235;BME280;6683;48.506;9.050;2022-07-23T06:05:57;98154.41;;;25.28;60.61
13235;BME280;6683;48.506;9.050;2022-07-23T06:09:00;98152.69;;;25.48;60.43
13235;BME280;6683;48.506;9.050;2022-07-23T06:12:02;98143.38;;;25.64;59.99
13235;BME280;6683;48.506;9.050;2022-07-23T06:15:08;98142.06;;;25.85;59.39
13235;BME280;6683;48.506;9.050;2022-07-23T06:18:11;98142.94;;;26.04;59.12
13235;BME280;6683;48.506;9.050;2022-07-23T06:21:13;98126.53;;;26.24;58.71
13235;BME280;6683;48.506;9.050;2022-07-23T06:24:16;98130.72;;;26.35;58.09
13235;BME280;6683;48.506;9.050;2022-07-23T06:27:19;98130.22;;;26.52;57.85
13235;BME280;6683;48.506;9.050;2022-07-23T06:30:22;98144.09;;;26.69;57.67
13235;BME280;6683;48.506;9.050;2022-07-23T06:33:25;98150.41;;;26.83;57.12
13235;BME280;6683;48.506;9.050;2022-07-23T06:36:28;98147.84;;;26.91;56.21
13235;BME280;6683;48.506;9.050;2022-07-23T06:39:30;98137.16;;;27.00;56.34
13235;BME280;6683;48.506;9.050;2022-07-23T06:42:32;98150.00;;;27.13;55.67
13235;BME280;6683;48.506;9.050;2022-07-23T06:45:39;98160.88;;;27.27;55.35
13235;BME280;6683;48.506;9.050;2022-07-23T06:48:41;98160.25;;;27.35;55.05
13235;BME280;6683;48.506;9.050;2022-07-23T06:51:43;98165.00;;;27.43;54.14
13235;BME280;6683;48.506;9.050;2022-07-23T06:54:45;98170.78;;;27.55;54.17
13235;BME280;6683;48.506;9.050;2022-07-23T06:57:47;98167.81;;;27.70;53.67
13235;BME280;6683;48.506;9.050;2022-07-23T07:00:51;98172.25;;;27.80;53.21
13235;BME280;6683;48.506;9.050;2022-07-23T07:03:54;98166.34;;;27.91;52.73
13235;BME280;6683;48.506;9.050;2022-07-23T07:06:56;98179.38;;;28.08;52.54
13235;BME280;6683;48.506;9.050;2022-07-23T07:09:58;98179.69;;;28.20;51.73
13235;BME280;6683;48.506;9.050;2022-07-23T07:13:00;98184.03;;;28.34;51.42
13235;BME280;6683;48.506;9.050;2022-07-23T07:16:05;98181.19;;;28.53;50.86
13235;BME280;6683;48.506;9.050;2022-07-23T07:19:07;98171.84;;;28.73;50.64
13235;BME280;6683;48.506;9.050;2022-07-23T07:22:09;98167.22;;;28.87;50.23
13235;BME280;6683;48.506;9.050;2022-07-23T07:25:12;98168.28;;;28.99;49.44
13235;BME280;6683;48.506;9.050;2022-07-23T07:28:14;98180.81;;;29.09;49.42
13235;BME280;6683;48.506;9.050;2022-07-23T07:31:18;98187.78;;;29.15;49.27
13235;BME280;6683;48.506;9.050;2022-07-23T07:34:21;98188.34;;;29.26;48.82
13235;BME280;6683;48.506;9.050;2022-07-23T07:37:23;98187.44;;;29.30;48.62
13235;BME280;6683;48.506;9.050;2022-07-23T07:40:26;98191.34;;;29.38;48.23
13235;BME280;6683;48.506;9.050;2022-07-23T07:43:28;98184.22;;;29.50;48.00
13235;BME280;6683;48.506;9.050;2022-07-23T07:46:32;98200.50;;;29.64;47.30
13235;BME280;6683;48.506;9.050;2022-07-23T07:49:35;98202.47;;;29.72;47.47
13235;BME280;6683;48.506;9.050;2022-07-23T07:52:38;98202.38;;;29.77;46.72
13235;BME280;6683;48.506;9.050;2022-07-23T07:55:40;98206.22;;;29.76;46.68
13235;BME280;6683;48.506;9.050;2022-07-23T07:58:42;98216.69;;;29.82;46.88
13235;BME280;6683;48.506;9.050;2022-07-23T08:01:46;98212.28;;;29.95;46.54
13235;BME280;6683;48.506;9.050;2022-07-23T08:04:48;98212.59;;;30.02;46.17
13235;BME280;6683;48.506;9.050;2022-07-23T08:07:51;98221.91;;;30.01;45.62
13235;BME280;6683;48.506;9.050;2022-07-23T08:10:54;98211.84;;;30.02;45.57
13235;BME280;6683;48.506;9.050;2022-07-23T08:13:56;98222.09;;;30.05;45.11
13235;BME280;6683;48.506;9.050;2022-07-23T08:17:00;98225.50;;;30.10;44.96
13235;BME280;6683;48.506;9.050;2022-07-23T08:20:03;98218.78;;;30.16;44.57
13235;BME280;6683;48.506;9.050;2022-07-23T08:23:08;98219.56;;;30.17;44.52
13235;BME280;6683;48.506;9.050;2022-07-23T08:26:11;98227.94;;;30.20;44.45
13235;BME280;6683;48.506;9.050;2022-07-23T08:29:14;98225.56;;;30.27;44.39
13235;BME280;6683;48.506;9.050;2022-07-23T08:32:18;98227.28;;;30.45;44.25
13235;BME280;6683;48.506;9.050;2022-07-23T08:35:26;98223.19;;;30.65;43.85
13235;BME280;6683;48.506;9.050;2022-07-23T08:38:28;98225.28;;;30.68;43.57
13235;BME280;6683;48.506;9.050;2022-07-23T08:41:31;98221.63;;;30.72;43.53
13235;BME280;6683;48.506;9.050;2022-07-23T08:44:34;98229.47;;;30.74;43.15
13235;BME280;6683;48.506;9.050;2022-07-23T08:47:39;98224.81;;;30.66;43.21
13235;BME280;6683;48.506;9.050;2022-07-23T08:50:44;98233.31;;;30.64;42.76
13235;BME280;6683;48.506;9.050;2022-07-23T08:53:47;98226.88;;;30.69;42.62
13235;BME280;6683;48.506;9.050;2022-07-23T08:56:49;98226.59;;;30.70;42.37
13235;BME280;6683;48.506;9.050;2022-07-23T08:59:52;98219.94;;;30.85;42.38
13235;BME280;6683;48.506;9.050;2022-07-23T09:02:55;98224.28;;;31.03;41.98
13235;BME280;6683;48.506;9.050;2022-07-23T09:05:59;98214.50;;;31.19;41.66
13235;BME280;6683;48.506;9.050;2022-07-23T09:09:17;98210.34;;;31.30;41.79
13235;BME280;6683;48.506;9.050;2022-07-23T09:12:19;98205.56;;;31.53;41.33
13235;BME280;6683;48.506;9.050;2022-07-23T09:15:21;98203.31;;;31.64;40.96
13235;BME280;6683;48.506;9.050;2022-07-23T09:18:35;98201.38;;;31.64;40.43
13235;BME280;6683;48.506;9.050;2022-07-23T09:21:39;98207.16;;;31.63;40.28
13235;BME280;6683;48.506;9.050;2022-07-23T09:25:06;98207.00;;;31.59;40.73
13235;BME280;6683;48.506;9.050;2022-07-23T09:28:08;98201.69;;;31.71;40.42
13235;BME280;6683;48.506;9.050;2022-07-23T09:31:11;98204.25;;;31.85;40.09
13235;BME280;6683;48.506;9.050;2022-07-23T09:34:18;98202.63;;;31.92;40.19
13235;BME280;6683;48.506;9.050;2022-07-23T09:37:21;98195.56;;;32.00;39.85
13235;BME280;6683;48.506;9.050;2022-07-23T09:40:26;98196.81;;;32.11;39.94
13235;BME280;6683;48.506;9.050;2022-07-23T09:43:28;98198.84;;;32.31;39.69
13235;BME280;6683;48.506;9.050;2022-07-23T09:46:31;98195.63;;;32.38;39.56
13235;BME280;6683;48.506;9.050;2022-07-23T09:49:33;98186.56;;;32.46;39.01
13235;BME280;6683;48.506;9.050;2022-07-23T09:52:46;98192.81;;;32.55;39.24
13235;BME280;6683;48.506;9.050;2022-07-23T09:55:51;98196.78;;;32.66;39.02
13235;BME280;6683;48.506;9.050;2022-07-23T09:58:57;98192.44;;;32.94;38.91
13235;BME280;6683;48.506;9.050;2022-07-23T10:02:12;98185.41;;;33.14;38.15
13235;BME280;6683;48.506;9.050;2022-07-23T10:05:16;98192.22;;;33.28;37.87
13235;BME280;6683;48.506;9.050;2022-07-23T10:08:19;98183.59;;;33.38;37.12
13235;BME280;6683;48.506;9.050;2022-07-23T10:11:24;98185.66;;;33.41;37.68
13235;BME280;6683;48.506;9.050;2022-07-23T10:14:27;98168.06;;;33.51;37.26
13235;BME280;6683;48.506;9.050;2022-07-23T10:17:32;98175.44;;;33.71;37.55
13235;BME280;6683;48.506;9.050;2022-07-23T10:20:35;98186.56;;;33.99;37.40
13235;BME280;6683;48.506;9.050;2022-07-23T10:23:44;98187.31;;;34.20;36.62
13235;BME280;6683;48.506;9.050;2022-07-23T10:27:01;98189.63;;;34.30;36.07
13235;BME280;6683;48.506;9.050;2022-07-23T10:30:10;98182.91;;;34.39;35.90
13235;BME280;6683;48.506;9.050;2022-07-23T10:33:29;98186.00;;;34.38;35.74
13235;BME280;6683;48.506;9.050;2022-07-23T10:36:44;98193.16;;;34.30;35.73
13235;BME280;6683;48.506;9.050;2022-07-23T10:40:09;98195.69;;;34.23;35.93
13235;BME280;6683;48.506;9.050;2022-07-23T10:43:16;98189.94;;;34.04;35.82
13235;BME280;6683;48.506;9.050;2022-07-23T10:46:24;98184.63;;;33.87;36.01
13235;BME280;6683;48.506;9.050;2022-07-23T10:49:39;98192.03;;;33.87;36.38
13235;BME280;6683;48.506;9.050;2022-07-23T10:52:42;98188.38;;;33.95;36.18
13235;BME280;6683;48.506;9.050;2022-07-23T10:56:06;98184.25;;;33.89;35.94
13235;BME280;6683;48.506;9.050;2022-07-23T10:59:08;98181.03;;;34.07;35.33
13235;BME280;6683;48.506;9.050;2022-07-23T11:02:23;98180.63;;;34.29;35.17
13235;BME280;6683;48.506;9.050;2022-07-23T11:05:41;98178.09;;;34.48;34.79
13235;BME280;6683;48.506;9.050;2022-07-23T11:08:44;98181.00;;;34.52;34.68
13235;BME280;6683;48.506;9.050;2022-07-23T11:11:47;98184.88;;;34.51;34.51
13235;BME280;6683;48.506;9.050;2022-07-23T11:15:00;98182.38;;;34.58;34.62
13235;BME280;6683;48.506;9.050;2022-07-23T11:18:03;98184.06;;;34.87;34.04
13235;BME280;6683;48.506;9.050;2022-07-23T11:21:42;98178.91;;;35.09;33.50
13235;BME280;6683;48.506;9.050;2022-07-23T11:24:51;98172.19;;;35.34;33.04
13235;BME280;6683;48.506;9.050;2022-07-23T11:28:15;98176.97;;;35.50;32.51
13235;BME280;6683;48.506;9.050;2022-07-23T11:31:18;98175.56;;;35.56;32.85
13235;BME280;6683;48.506;9.050;2022-07-23T11:34:31;98177.16;;;35.84;32.12
13235;BME280;6683;48.506;9.050;2022-07-23T11:37:37;98177.34;;;35.91;31.48
13235;BME280;6683;48.506;9.050;2022-07-23T11:40:40;98179.88;;;35.69;31.70
13235;BME280;6683;48.506;9.050;2022-07-23T11:43:44;98166.19;;;35.45;32.28
13235;BME280;6683;48.506;9.050;2022-07-23T11:46:55;98171.69;;;35.57;32.05
13235;BME280;6683;48.506;9.050;2022-07-23T11:50:00;98156.56;;;35.78;31.31
13235;BME280;6683;48.506;9.050;2022-07-23T11:53:03;98158.81;;;35.88;31.94
13235;BME280;6683;48.506;9.050;2022-07-23T11:56:08;98149.78;;;35.88;31.29
13235;BME280;6683;48.506;9.050;2022-07-23T11:59:13;98153.22;;;35.85;31.07
13235;BME280;6683;48.506;9.050;2022-07-23T12:02:18;98156.41;;;35.87;31.09
13235;BME280;6683;48.506;9.050;2022-07-23T12:05:23;98153.22;;;35.85;31.21
13235;BME280;6683;48.506;9.050;2022-07-23T12:08:26;98152.84;;;35.98;30.97
13235;BME280;6683;48.506;9.050;2022-07-23T12:11:29;98160.56;;;36.08;30.81
13235;BME280;6683;48.506;9.050;2022-07-23T12:14:32;98154.78;;;36.13;30.59
13235;BME280;6683;48.506;9.050;2022-07-23T12:17:37;98140.34;;;36.17;30.12
13235;BME280;6683;48.506;9.050;2022-07-23T12:20:42;98140.59;;;36.27;30.22
13235;BME280;6683;48.506;9.050;2022-07-23T12:23:48;98133.59;;;36.45;29.48
13235;BME280;6683;48.506;9.050;2022-07-23T12:27:09;98145.22;;;36.54;29.35
13235;BME280;6683;48.506;9.050;2022-07-23T12:30:25;98139.16;;;36.64;29.27
13235;BME280;6683;48.506;9.050;2022-07-23T12:33:33;98131.09;;;36.71;29.13
13235;BME280;6683;48.506;9.050;2022-07-23T12:36:39;98125.28;;;36.92;29.19
13235;BME280;6683;48.506;9.050;2022-07-23T12:39:41;98127.38;;;37.18;28.60
13235;BME280;6683;48.506;9.050;2022-07-23T12:42:45;98131.91;;;37.26;28.47
13235;BME280;6683;48.506;9.050;2022-07-23T12:45:51;98130.00;;;37.30;28.31
13235;BME280;6683;48.506;9.050;2022-07-23T12:48:55;98137.19;;;37.15;28.24
13235;BME280;6683;48.506;9.050;2022-07-23T12:51:58;98145.41;;;36.96;28.33
13235;BME280;6683;48.506;9.050;2022-07-23T12:55:00;98134.97;;;36.70;28.49
13235;BME280;6683;48.506;9.050;2022-07-23T12:58:11;98139.25;;;36.37;28.81
13235;BME280;6683;48.506;9.050;2022-07-23T13:01:27;98135.53;;;36.13;29.27
13235;BME280;6683;48.506;9.050;2022-07-23T13:04:29;98138.28;;;36.13;29.42
13235;BME280;6683;48.506;9.050;2022-07-23T13:07:34;98147.34;;;36.14;29.33
13235;BME280;6683;48.506;9.050;2022-07-23T13:10:36;98144.69;;;36.02;29.21
13235;BME280;6683;48.506;9.050;2022-07-23T13:13:39;98144.19;;;35.84;29.23
13235;BME280;6683;48.506;9.050;2022-07-23T13:16:44;98139.03;;;35.67;29.31
13235;BME280;6683;48.506;9.050;2022-07-23T13:19:46;98143.72;;;35.67;29.47
13235;BME280;6683;48.506;9.050;2022-07-23T13:22:49;98151.06;;;35.63;29.46
13235;BME280;6683;48.506;9.050;2022-07-23T13:25:51;98155.66;;;35.59;29.07
13235;BME280;6683;48.506;9.050;2022-07-23T13:28:54;98155.38;;;35.64;28.87
13235;BME280;6683;48.506;9.050;2022-07-23T13:31:58;98152.41;;;35.69;28.53
13235;BME280;6683;48.506;9.050;2022-07-23T13:35:00;98141.59;;;35.76;28.47
13235;BME280;6683;48.506;9.050;2022-07-23T13:38:03;98146.84;;;35.81;28.52
13235;BME280;6683;48.506;9.050;2022-07-23T13:41:08;98149.38;;;35.74;28.42
13235;BME280;6683;48.506;9.050;2022-07-23T13:44:10;98164.22;;;35.57;28.66
13235;BME280;6683;48.506;9.050;2022-07-23T13:47:14;98169.88;;;35.36;28.90
13235;BME280;6683;48.506;9.050;2022-07-23T13:50:16;98176.50;;;35.08;29.49
13235;BME280;6683;48.506;9.050;2022-07-23T13:53:22;98174.00;;;34.79;29.66
13235;BME280;6683;48.506;9.050;2022-07-23T13:56:24;98172.09;;;34.67;30.28
13235;BME280;6683;48.506;9.050;2022-07-23T13:59:27;98172.53;;;34.57;30.44
13235;BME280;6683;48.506;9.050;2022-07-23T14:02:31;98164.72;;;34.47;30.50
13235;BME280;6683;48.506;9.050;2022-07-23T14:05:33;98175.81;;;34.38;30.72
13235;BME280;6683;48.506;9.050;2022-07-23T14:08:36;98172.97;;;34.23;30.94
13235;BME280;6683;48.506;9.050;2022-07-23T14:11:38;98166.19;;;34.08;30.91
13235;BME280;6683;48.506;9.050;2022-07-23T14:14:41;98175.84;;;33.94;31.10
13235;BME280;6683;48.506;9.050;2022-07-23T14:17:46;98171.66;;;33.75;31.64
13235;BME280;6683;48.506;9.050;2022-07-23T14:20:48;98173.25;;;33.64;31.10
13235;BME280;6683;48.506;9.050;2022-07-23T14:23:51;98170.63;;;33.47;31.14
13235;BME280;6683;48.506;9.050;2022-07-23T14:26:53;98166.56;;;33.33;31.86
13235;BME280;6683;48.506;9.050;2022-07-23T14:29:56;98164.09;;;33.19;31.91
13235;BME280;6683;48.506;9.050;2022-07-23T14:33:00;98165.31;;;33.10;32.49
13235;BME280;6683;48.506;9.050;2022-07-23T14:36:03;98162.56;;;33.10;32.53
13235;BME280;6683;48.506;9.050;2022-07-23T14:39:06;98165.38;;;33.22;32.53
13235;BME280;6683;48.506;9.050;2022-07-23T14:42:10;98152.47;;;33.43;32.33
13235;BME280;6683;48.506;9.050;2022-07-23T14:45:12;98158.94;;;33.59;32.44
13235;BME280;6683;48.506;9.050;2022-07-23T14:48:17;98148.38;;;33.69;31.79
13235;BME280;6683;48.506;9.050;2022-07-23T14:51:19;98149.56;;;33.80;32.11
13235;BME280;6683;48.506;9.050;2022-07-23T14:54:22;98152.75;;;33.82;31.45
13235;BME280;6683;48.506;9.050;2022-07-23T14:57:26;98151.63;;;33.83;31.18
13235;BME280;6683;48.506;9.050;2022-07-23T15:00:28;98151.16;;;33.81;31.20
13235;BME280;6683;48.506;9.050;2022-07-23T15:03:32;98147.72;;;33.72;31.16
13235;BME280;6683;48.506;9.050;2022-07-23T15:06:34;98144.25;;;33.63;30.80
13235;BME280;6683;48.506;9.050;2022-07-23T15:09:37;98145.84;;;33.52;30.82
13235;BME280;6683;48.506;9.050;2022-07-23T15:12:39;98138.78;;;33.43;30.92
13235;BME280;6683;48.506;9.050;2022-07-23T15:15:42;98139.78;;;33.38;30.89
13235;BME280;6683;48.506;9.050;2022-07-23T15:18:46;98127.47;;;33.32;30.72
13235;BME280;6683;48.506;9.050;2022-07-23T15:21:48;98135.91;;;33.27;30.81
13235;BME280;6683;48.506;9.050;2022-07-23T15:24:51;98138.81;;;33.22;30.88
13235;BME280;6683;48.506;9.050;2022-07-23T15:27:53;98137.91;;;33.18;30.86
13235;BME280;6683;48.506;9.050;2022-07-23T15:30:55;98131.97;;;33.16;31.21
13235;BME280;6683;48.506;9.050;2022-07-23T15:34:00;98134.56;;;33.13;31.13
13235;BME280;6683;48.506;9.050;2022-07-23T15:37:03;98136.38;;;33.09;30.85
13235;BME280;6683;48.506;9.050;2022-07-23T15:40:08;98138.31;;;33.08;31.15
13235;BME280;6683;48.506;9.050;2022-07-23T15:43:10;98138.50;;;33.03;31.25
13235;BME280;6683;48.506;9.050;2022-07-23T15:46:14;98138.22;;;32.96;31.54
13235;BME280;6683;48.506;9.050;2022-07-23T15:49:18;98128.25;;;32.91;31.24
13235;BME280;6683;48.506;9.050;2022-07-23T15:52:20;98136.13;;;32.93;31.79
13235;BME280;6683;48.506;9.050;2022-07-23T15:55:23;98131.78;;;32.92;31.15
13235;BME280;6683;48.506;9.050;2022-07-23T15:58:27;98130.19;;;32.91;31.28
13235;BME280;6683;48.506;9.050;2022-07-23T16:01:30;98131.13;;;32.95;31.09
13235;BME280;6683;48.506;9.050;2022-07-23T16:04:34;98130.16;;;32.99;31.45
13235;BME280;6683;48.506;9.050;2022-07-23T16:07:38;98134.16;;;33.02;31.30
13235;BME280;6683;48.506;9.050;2022-07-23T16:10:40;98128.34;;;33.03;31.87
13235;BME280;6683;48.506;9.050;2022-07-23T16:13:43;98131.91;;;33.04;31.95
13235;BME280;6683;48.506;9.050;2022-07-23T16:16:45;98139.28;;;33.03;31.90
13235;BME280;6683;48.506;9.050;2022-07-23T16:19:49;98132.41;;;32.97;31.75
13235;BME280;6683;48.506;9.050;2022-07-23T16:22:51;98135.31;;;32.92;31.97
13235;BME280;6683;48.506;9.050;2022-07-23T16:25:54;98144.84;;;32.86;31.46
13235;BME280;6683;48.506;9.050;2022-07-23T16:28:56;98137.19;;;32.80;31.58